地図

経路データ

SID SEASON NUMBER BASIN SUBBASIN NAME ISO_TIME NATURE LAT LON WMO_WIND WMO_PRES WMO_AGENCY TRACK_TYPE DIST2LAND LANDFALL IFLAG USA_AGENCY USA_ATCF_ID USA_LAT USA_LON USA_RECORD USA_STATUS USA_WIND USA_PRES USA_SSHS USA_R34_NE USA_R34_SE USA_R34_SW USA_R34_NW USA_R50_NE USA_R50_SE USA_R50_SW USA_R50_NW USA_R64_NE USA_R64_SE USA_R64_SW USA_R64_NW USA_POCI USA_ROCI USA_RMW USA_EYE TOKYO_LAT TOKYO_LON TOKYO_GRADE TOKYO_WIND TOKYO_PRES TOKYO_R50_DIR TOKYO_R50_LONG TOKYO_R50_SHORT TOKYO_R30_DIR TOKYO_R30_LONG TOKYO_R30_SHORT TOKYO_LAND CMA_LAT CMA_LON CMA_CAT CMA_WIND CMA_PRES HKO_LAT HKO_LON HKO_CAT HKO_WIND HKO_PRES NEWDELHI_LAT NEWDELHI_LON NEWDELHI_GRADE NEWDELHI_WIND NEWDELHI_PRES NEWDELHI_CI NEWDELHI_DP NEWDELHI_POCI REUNION_LAT REUNION_LON REUNION_TYPE REUNION_WIND REUNION_PRES REUNION_TNUM REUNION_CI REUNION_RMW REUNION_R34_NE REUNION_R34_SE REUNION_R34_SW REUNION_R34_NW REUNION_R50_NE REUNION_R50_SE REUNION_R50_SW REUNION_R50_NW REUNION_R64_NE REUNION_R64_SE REUNION_R64_SW REUNION_R64_NW BOM_LAT BOM_LON BOM_TYPE BOM_WIND BOM_PRES BOM_TNUM BOM_CI BOM_RMW BOM_R34_NE BOM_R34_SE BOM_R34_SW BOM_R34_NW BOM_R50_NE BOM_R50_SE BOM_R50_SW BOM_R50_NW BOM_R64_NE BOM_R64_SE BOM_R64_SW BOM_R64_NW BOM_ROCI BOM_POCI BOM_EYE BOM_POS_METHOD BOM_PRES_METHOD NADI_LAT NADI_LON NADI_CAT NADI_WIND NADI_PRES WELLINGTON_LAT WELLINGTON_LON WELLINGTON_WIND WELLINGTON_PRES DS824_LAT DS824_LON DS824_STAGE DS824_WIND DS824_PRES TD9636_LAT TD9636_LON TD9636_STAGE TD9636_WIND TD9636_PRES TD9635_LAT TD9635_LON TD9635_WIND TD9635_PRES TD9635_ROCI NEUMANN_LAT NEUMANN_LON NEUMANN_CLASS NEUMANN_WIND NEUMANN_PRES MLC_LAT MLC_LON MLC_CLASS MLC_WIND MLC_PRES USA_GUST BOM_GUST BOM_GUST_PER REUNION_GUST REUNION_GUST_PER USA_SEAHGT USA_SEARAD_NE USA_SEARAD_SE USA_SEARAD_SW USA_SEARAD_NW STORM_SPEED STORM_DIR
1963185N22089 1963 58 NI BB NOT_NAMED 1963-07-03 18:00:00 TS 21.6000 88.9000 main 0 0 O________O____ jtwc_io IO061963 21.6000 88.9000 -1 21.6000 88.9000 TC 2 296
1963185N22089 1963 58 NI BB NOT_NAMED 1963-07-03 21:00:00 TS 21.6425 88.8075 main 10 0 P________P____ IO061963 21.6425 88.8075 -1 21.6425 88.8075 TC 2 299
1963185N22089 1963 58 NI BB NOT_NAMED 1963-07-04 00:00:00 TS 21.7000 88.7000 main 0 0 O________O____ jtwc_io IO061963 21.7000 88.7000 -1 21.7000 88.7000 TC 25 3 303
1963185N22089 1963 58 NI BB NOT_NAMED 1963-07-04 03:00:00 TS 21.7867 88.5689 main 0 0 P________PO___ IO061963 21.7850 88.5650 -1 21.7850 88.5650 TC 25 21.8000 88.6000 1 4 306
1963185N22089 1963 58 NI BB NOT_NAMED 1963-07-04 06:00:00 TS 21.9098 88.3920 main 0 0 O________OP___ jtwc_io IO061963 21.9000 88.4000 -1 21.9000 88.4000 TC 25 21.9490 88.3601 1 5 307
1963185N22089 1963 58 NI BB NOT_NAMED 1963-07-04 09:00:00 TS 22.0605 88.1825 main 0 0 P________PP___ IO061963 22.0500 88.2001 -1 22.0500 88.2001 TC 25 22.0883 88.1358 1 5 307
1963185N22089 1963 58 NI BB NOT_NAMED 1963-07-04 12:00:00 TS 22.2028 87.9812 main 0 0 O________OP___ jtwc_io IO061963 22.2000 88.0000 -1 22.2000 88.0000 TC 25 22.2084 87.9437 1 4 307
1963185N22089 1963 58 NI BB NOT_NAMED 1963-07-04 15:00:00 TS 22.3150 87.8233 main 0 0 P________PO___ IO061963 22.3225 87.8350 -1 22.3225 87.8350 TC 25 22.3000 87.8000 1 3 306
1963185N22089 1963 58 NI BB NOT_NAMED 1963-07-04 18:00:00 TS 22.3862 87.7032 main 0 0 O________OP___ jtwc_io IO061963 22.4000 87.7000 -1 22.4000 87.7000 TC 25 22.3587 87.7097 1 2 295
1963185N22089 1963 58 NI BB NOT_NAMED 1963-07-04 21:00:00 TS 22.3996 87.6255 main 0 0 P________PP___ IO061963 22.3999 87.6224 -1 22.3999 87.6224 TC 25 22.3989 87.6316 1 2 278
1963185N22089 1963 58 NI BB NOT_NAMED 1963-07-05 00:00:00 TS 22.4132 87.5042 main 0 0 O________OP___ jtwc_io IO061963 22.4000 87.5000 -1 22.4000 87.5000 TC 25 22.4397 87.5127 1 3 285
1963185N22089 1963 58 NI BB NOT_NAMED 1963-07-05 03:00:00 TS 22.4849 87.2733 main 0 0 P________PO___ IO061963 22.4774 87.2599 -1 22.4774 87.2599 TC 25 22.5000 87.3000 1 6 289
1963185N22089 1963 58 NI BB NOT_NAMED 1963-07-05 06:00:00 TS 22.6041 86.9060 main 0 0 O________OP___ jtwc_io IO061963 22.6000 86.9000 -1 22.6000 86.9000 TC 25 22.6123 86.9181 1 8 289
1963185N22089 1963 58 NI BB NOT_NAMED 1963-07-05 09:00:00 TS 22.7480 86.4287 main 0 0 P________PP___ IO061963 22.7502 86.4226 -1 22.7502 86.4226 TC 25 22.7436 86.4408 1 10 287
1963185N22089 1963 58 NI BB NOT_NAMED 1963-07-05 12:00:00 TS 22.8926 85.9060 main 0 0 O________OP___ jtwc_io IO061963 22.9000 85.9000 -1 22.9000 85.9000 TC 25 22.8779 85.9180 1 10 286
1963185N22089 1963 58 NI BB NOT_NAMED 1963-07-05 15:00:00 TS 23.0099 85.4283 main 0 0 P________PO___ IO061963 23.0148 85.4424 -1 23.0148 85.4424 TC 25 23.0000 85.4000 1 9 283
1963185N22089 1963 58 NI BB NOT_NAMED 1963-07-05 18:00:00 TS 23.0867 84.9919 main 0 0 O________OP___ jtwc_io IO061963 23.1000 85.0000 -1 23.1000 85.0000 TC 25 23.0601 84.9756 1 8 279
1963185N22089 1963 58 NI BB NOT_NAMED 1963-07-05 21:00:00 TS 23.1320 84.5542 main 0 0 P________PP___ IO061963 23.1424 84.5497 -1 23.1424 84.5497 TC 25 23.1113 84.5631 1 8 278
1963185N22089 1963 58 NI BB NOT_NAMED 1963-07-06 00:00:00 TS 23.1940 84.1147 main 0 0 O________OP___ jtwc_io IO061963 23.2000 84.1000 -1 23.2000 84.1000 TC 25 23.1819 84.1442 1 8 283
1963185N22089 1963 58 NI BB NOT_NAMED 1963-07-06 03:00:00 TS 23.3132 83.6716 main 0 0 P________PO___ IO061963 23.3198 83.6573 -1 23.3198 83.6573 TC 25 23.3000 83.7000 1 9 290
1963185N22089 1963 58 NI BB NOT_NAMED 1963-07-06 06:00:00 TS 23.4942 83.2065 main 0 0 O________OP___ jtwc_io IO061963 23.5000 83.2000 -1 23.5000 83.2000 TC 25 23.4856 83.2163 1 10 295
1963185N22089 1963 58 NI BB NOT_NAMED 1963-07-06 09:00:00 TS 23.7318 82.7052 main 0 0 P________PP___ IO061963 23.7354 82.7105 -1 23.7354 82.7105 TC 25 23.7271 82.6981 1 11 298
1963185N22089 1963 58 NI BB NOT_NAMED 1963-07-06 12:00:00 TS 24.0025 82.1779 main 0 0 O________OP___ jtwc_io IO061963 24.0000 82.2000 -1 24.0000 82.2000 TC 25 24.0050 82.1558 1 12 299
1963185N22089 1963 58 NI BB NOT_NAMED 1963-07-06 15:00:00 NR 24.3000 81.6000 main 0 __________O___ IO061963 -1 TC 24.3000 81.6000 1 12 299

IBTrACS Databaseについて

本データベースは、米国NOAAが公開する1842年以降の世界の熱帯低気圧のベストトラックデータアーカイブInternational Best Track Archive for Climate Stewardship (IBTrACS)を、ウェブで閲覧しやすい形式に変換したものです。

最終更新日:2021-12-03